Latest Weather Observations for Little Bay

IDN60801

Issued at 5:42 am EST Sunday 22 September 2019 (issued every 10 minutes, with the page automatically refreshed every 10 minutes)

About weather observations | Map of weather stations | Latest weather observations for NSW | Other Formats
Station Details ID: 066051 Name: LITTLE BAY (THE COAST GOLF CLUB) Lat: -33.98 Lon: 151.25 Height: 22.0 m
Data from the previous 72 hours. | See also: Recent months at Little Bay
Date/Time
EST
Temp
°C
App
Temp
°C
Dew
Point
°C
Rel
Hum
%
Delta-T
°C
Wind Press
QNH
hPa
Press
MSL
hPa
Rain since
9am
mm
Dir  Spd
km/h
Gust
km/h
Spd
kts
Gust
kts
22/05:30am - - - - - NNW 7 11 4 6 - - -
22/05:00am - - - - - N 6 9 3 5 - - -
22/04:30am - - - - - NNE 2 6 1 3 - - -
22/04:00am - - - - - CALM 0 4 0 2 - - -
22/03:30am - - - - - N 6 9 3 5 - - -
22/03:00am - - - - - N 6 6 3 3 - - -
22/02:30am - - - - - NNW 6 11 3 6 - - -
22/02:00am - - - - - CALM 0 6 0 3 - - -
22/01:30am - - - - - NNW 4 6 2 3 - - -
22/01:00am - - - - - N 7 13 4 7 - - -
22/12:30am - - - - - N 6 7 3 4 - - -
22/12:00am - - - - - N 9 13 5 7 - - -
 
Date/Time
EST
Temp
°C
App
Temp
°C
Dew
Point
°C
Rel
Hum
%
Delta-T
°C
Wind Press
QNH
hPa
Press
MSL
hPa
Rain since
9am
mm
Dir  Spd
km/h
Gust
km/h
Spd
kts
Gust
kts
21/11:30pm - - - - - N 13 20 7 11 - - -
21/11:00pm - - - - - N 15 20 8 11 - - -
21/10:30pm - - - - - N 17 24 9 13 - - -
21/10:00pm - - - - - NNE 20 30 11 16 - - -
21/09:30pm - - - - - N 20 32 11 17 - - -
21/09:00pm - - - - - N 20 32 11 17 - - -
21/08:30pm - - - - - NNE 24 39 13 21 - - -
21/08:00pm - - - - - NNE 32 44 17 24 - - -
21/07:30pm - - - - - NNE 22 32 12 17 - - -
21/07:00pm - - - - - NW 13 28 7 15 - - -
21/06:30pm - - - - - NNE 28 39 15 21 - - -
21/06:20pm - - - - - N 30 50 16 27 - - -
21/06:00pm - - - - - NNE 30 41 16 22 - - -
21/05:30pm - - - - - N 24 35 13 19 - - -
21/05:00pm - - - - - NNE 26 35 14 19 - - -
21/04:30pm - - - - - NNE 28 39 15 21 - - -
21/04:00pm - - - - - NNE 26 37 14 20 - - -
21/03:30pm - - - - - NNE 24 35 13 19 - - -
21/03:00pm - - - - - NNE 30 41 16 22 - - -
21/02:30pm - - - - - NNE 32 44 17 24 - - -
21/02:00pm - - - - - NNE 32 43 17 23 - - -
21/01:30pm - - - - - NNE 26 39 14 21 - - -
21/01:00pm - - - - - NNE 32 46 17 25 - - -
21/12:30pm - - - - - NNE 33 44 18 24 - - -
21/12:00pm - - - - - NNE 32 41 17 22 - - -
21/11:30am - - - - - NNE 28 37 15 20 - - -
21/11:00am - - - - - NNE 26 35 14 19 - - -
21/10:30am - - - - - NNE 24 35 13 19 - - -
21/10:00am - - - - - NNE 24 32 13 17 - - -
21/09:30am - - - - - NNE 24 33 13 18 - - -
21/09:00am - - - - - N 26 35 14 19 - - -
21/08:30am - - - - - N 24 37 13 20 - - -
21/08:00am - - - - - N 22 32 12 17 - - -
21/07:30am - - - - - N 22 33 12 18 - - -
21/07:00am - - - - - N 20 28 11 15 - - -
21/06:30am - - - - - N 20 32 11 17 - - -
21/06:00am - - - - - N 20 33 11 18 - - -
21/05:30am - - - - - N 19 33 10 18 - - -
21/05:00am - - - - - NNE 20 26 11 14 - - -
21/04:30am - - - - - NNE 20 26 11 14 - - -
21/04:00am - - - - - NNE 19 26 10 14 - - -
21/03:30am - - - - - NNE 19 26 10 14 - - -
21/03:00am - - - - - N 19 28 10 15 - - -
21/02:30am - - - - - NNE 19 28 10 15 - - -
21/02:00am - - - - - NNE 20 35 11 19 - - -
21/01:30am - - - - - NNE 26 37 14 20 - - -
21/01:00am - - - - - NNE 28 37 15 20 - - -
21/12:30am - - - - - NNE 24 35 13 19 - - -
21/12:00am - - - - - NNE 24 35 13 19 - - -
 
Date/Time
EST
Temp
°C
App
Temp
°C
Dew
Point
°C
Rel
Hum
%
Delta-T
°C
Wind Press
QNH
hPa
Press
MSL
hPa
Rain since
9am
mm
Dir  Spd
km/h
Gust
km/h
Spd
kts
Gust
kts
20/11:30pm - - - - - NNE 26 39 14 21 - - -
20/11:00pm - - - - - NNE 26 41 14 22 - - -
20/10:30pm - - - - - NNE 32 43 17 23 - - -
20/10:00pm - - - - - NNE 30 44 16 24 - - -
20/09:30pm - - - - - NNE 32 41 17 22 - - -
20/09:00pm - - - - - NNE 32 43 17 23 - - -
20/08:30pm - - - - - NNE 33 46 18 25 - - -
20/08:00pm - - - - - NNE 32 39 17 21 - - -
20/07:30pm - - - - - NNE 30 41 16 22 - - -
20/07:00pm - - - - - NNE 30 43 16 23 - - -
20/06:30pm - - - - - NNE 30 39 16 21 - - -
20/06:00pm - - - - - NNE 28 37 15 20 - - -
20/05:30pm - - - - - NNE 30 37 16 20 - - -
20/05:00pm - - - - - NNE 30 39 16 21 - - -
20/04:30pm - - - - - NNE 28 35 15 19 - - -
20/04:00pm - - - - - NNE 30 37 16 20 - - -
20/03:30pm - - - - - NNE 30 39 16 21 - - -
20/03:00pm - - - - - NNE 28 35 15 19 - - -
20/02:30pm - - - - - NNE 26 33 14 18 - - -
20/02:00pm - - - - - NNE 22 30 12 16 - - -
20/01:30pm - - - - - NNE 22 28 12 15 - - -
20/01:00pm - - - - - NNE 26 35 14 19 - - -
20/12:30pm - - - - - NE 24 32 13 17 - - -
20/12:00pm - - - - - NNE 26 37 14 20 - - -
20/11:30am - - - - - NNE 26 35 14 19 - - -
20/11:00am - - - - - NNE 24 32 13 17 - - -
20/10:30am - - - - - NNE 22 32 12 17 - - -
20/10:00am - - - - - NNE 22 28 12 15 - - -
20/09:30am - - - - - NNE 20 30 11 16 - - -
20/09:00am - - - - - NNE 20 30 11 16 - - -
20/08:30am - - - - - NNE 19 26 10 14 - - -
20/08:00am - - - - - NNE 19 24 10 13 - - -
20/07:30am - - - - - NNE 22 32 12 17 - - -
20/07:00am - - - - - NNE 19 26 10 14 - - -
20/06:30am - - - - - NNE 13 22 7 12 - - -
20/06:00am - - - - - NNE 15 20 8 11 - - -
20/05:30am - - - - - NNE 11 17 6 9 - - -
20/05:00am - - - - - N 6 11 3 6 - - -
20/04:30am - - - - - N 7 13 4 7 - - -
20/04:00am - - - - - N 6 9 3 5 - - -
20/03:30am - - - - - NNE 15 22 8 12 - - -
20/03:00am - - - - - N 7 11 4 6 - - -
20/02:30am - - - - - NNE 9 13 5 7 - - -
20/02:00am - - - - - NNE 9 22 5 12 - - -
20/01:30am - - - - - N 7 9 4 5 - - -
20/01:00am - - - - - NNE 11 19 6 10 - - -
20/12:30am - - - - - NNE 15 19 8 10 - - -
20/12:00am - - - - - NNE 15 20 8 11 - - -
 
Date/Time
EST
Temp
°C
App
Temp
°C
Dew
Point
°C
Rel
Hum
%
Delta-T
°C
Wind Press
QNH
hPa
Press
MSL
hPa
Rain since
9am
mm
Dir  Spd
km/h
Gust
km/h
Spd
kts
Gust
kts
19/11:30pm - - - - - NNE 17 20 9 11 - - -
19/11:00pm - - - - - NNE 17 20 9 11 - - -
19/10:30pm - - - - - NNE 15 20 8 11 - - -
19/10:00pm - - - - - NNE 13 15 7 8 - - -
19/09:30pm - - - - - NNE 11 17 6 9 - - -
19/09:00pm - - - - - NNE 13 17 7 9 - - -
19/08:30pm - - - - - NNE 13 19 7 10 - - -
19/08:00pm - - - - - NE 17 22 9 12 - - -
19/07:30pm - - - - - NE 17 22 9 12 - - -
19/07:00pm - - - - - NE 17 24 9 13 - - -
19/06:30pm - - - - - NE 15 22 8 12 - - -
19/06:00pm - - - - - NE 17 24 9 13 - - -
19/05:30pm - - - - - NE 17 24 9 13 - - -
19/05:00pm - - - - - NE 15 20 8 11 - - -
19/04:30pm - - - - - NE 15 22 8 12 - - -
19/04:00pm - - - - - NE 9 13 5 7 - - -
19/03:30pm - - - - - NE 9 15 5 8 - - -
19/03:00pm - - - - - NE 11 15 6 8 - - -
19/02:30pm - - - - - ENE 9 13 5 7 - - -
19/02:00pm - - - - - E 11 13 6 7 - - -
19/01:30pm - - - - - E 11 13 6 7 - - -
19/01:00pm - - - - - E 9 9 5 5 - - -
19/12:30pm - - - - - E 9 11 5 6 - - -
19/12:00pm - - - - - ESE 9 11 5 6 - - -
19/11:30am - - - - - ESE 7 9 4 5 - - -
19/11:00am - - - - - E 7 9 4 5 - - -
19/10:30am - - - - - E 6 7 3 4 - - -
19/10:00am - - - - - E 6 7 3 4 - - -
19/09:30am - - - - - ENE 6 7 3 4 - - -
19/09:00am - - - - - N 7 11 4 6 - - -
19/08:30am - - - - - NNE 7 11 4 6 - - -
19/08:00am - - - - - NNE 11 15 6 8 - - -
19/07:30am - - - - - N 6 9 3 5 - - -
19/07:00am - - - - - ENE 4 13 2 7 - - -
19/06:30am - - - - - CALM 0 0 0 0 - - -
19/06:00am - - - - - CALM 0 2 0 1 - - -

Other formats

Comma delimited format used in spreadsheet applications
http://www.bom.gov.au/fwo/IDN60801/IDN60801.94780.axf

JavaScript Object Notation format (JSON) in row-major order
http://www.bom.gov.au/fwo/IDN60801/IDN60801.94780.json

Data quality

Most of these data are generated automatically and are frequently updated. Quality checks on data are not normally performed. It is possible for incorrect values to appear. Refer to information at About Latest Weather Observations and please check the disclaimer before using these data.